Time;durP1;ratioP1;P1;durP2;ratioP2;P2;SDS_P1;SDS_P2;PMS_P1;PMS_P2;Temp;Humidity;BMP_temperature;BMP_pressure;BME280_temperature;BME280_humidity;BME280_pressure;Samples;Min_cycle;Max_cycle;Signal;HPM_P1;HPM_P2
2023/07/21 00:01:49;;;;;;;5.20;4.63;;;20.40;91.80;;;;;;4955632;29;20110;-58
2023/07/21 00:04:17;;;;;;;5.28;4.63;;;20.30;91.80;;;;;;4955796;29;20063;-58
2023/07/21 00:06:43;;;;;;;4.97;4.47;;;20.30;91.80;;;;;;4954746;28;20031;-58
2023/07/21 00:09:09;;;;;;;5.38;4.88;;;20.30;91.90;;;;;;4955766;29;20046;-57
2023/07/21 00:11:38;;;;;;;6.00;4.93;;;20.30;92.00;;;;;;4955589;29;20392;-58
2023/07/21 00:14:06;;;;;;;5.15;4.65;;;20.30;92.00;;;;;;4955612;29;20030;-57
2023/07/21 00:16:33;;;;;;;4.80;4.30;;;20.20;92.00;;;;;;4955812;29;20121;-57
2023/07/21 00:19:00;;;;;;;5.22;4.68;;;20.20;92.10;;;;;;4955613;29;20035;-58
2023/07/21 00:21:26;;;;;;;5.40;4.90;;;20.20;92.20;;;;;;4955624;29;20027;-58
2023/07/21 00:23:51;;;;;;;5.47;4.97;;;20.20;92.40;;;;;;4955257;29;20028;-58
2023/07/21 00:26:17;;;;;;;6.28;5.57;;;20.20;92.50;;;;;;4955386;29;20507;-58
2023/07/21 00:28:43;;;;;;;7.13;5.28;;;20.20;92.50;;;;;;4955200;29;20024;-58
2023/07/21 00:31:10;;;;;;;5.68;5.07;;;20.20;92.60;;;;;;4955175;29;20110;-58
2023/07/21 00:33:36;;;;;;;7.93;5.88;;;20.10;92.70;;;;;;4955647;29;20090;-58
2023/07/21 00:36:04;;;;;;;6.30;5.60;;;20.10;92.70;;;;;;4955087;29;20114;-57
2023/07/21 00:38:30;;;;;;;5.95;5.35;;;20.10;92.80;;;;;;4955326;28;20038;-57
2023/07/21 00:40:55;;;;;;;6.78;5.97;;;20.10;92.90;;;;;;4955041;29;20455;-58
2023/07/21 00:43:21;;;;;;;7.30;6.35;;;20.00;92.90;;;;;;4954980;29;20027;-57
2023/07/21 00:45:48;;;;;;;7.78;6.97;;;20.00;93.10;;;;;;4955340;29;20094;-58
2023/07/21 00:48:16;;;;;;;7.32;6.57;;;20.00;93.20;;;;;;4954852;29;20086;-57
2023/07/21 00:50:45;;;;;;;7.70;7.00;;;19.90;93.30;;;;;;4953541;28;20062;-57
2023/07/21 00:53:14;;;;;;;6.53;5.82;;;19.90;93.20;;;;;;4954756;29;20031;-58
2023/07/21 00:55:43;;;;;;;7.05;6.35;;;19.90;93.20;;;;;;4954689;29;20377;-57
2023/07/21 00:58:10;;;;;;;7.97;7.28;;;19.90;93.30;;;;;;4954498;29;20051;-58
2023/07/21 01:00:36;;;;;;;8.70;7.80;;;19.80;93.20;;;;;;4954624;29;20034;-58
2023/07/21 01:03:03;;;;;;;8.07;7.28;;;19.70;93.60;;;;;;4954557;29;20480;-58
2023/07/21 01:05:35;;;;;;;8.43;7.63;;;19.80;93.50;;;;;;4955131;29;20027;-58
2023/07/21 01:08:04;;;;;;;8.90;8.10;;;19.70;93.40;;;;;;4954854;29;20046;-58
2023/07/21 01:10:32;;;;;;;8.80;8.00;;;19.70;93.40;;;;;;4954750;29;20090;-58
2023/07/21 01:12:58;;;;;;;8.55;7.75;;;19.60;93.40;;;;;;4954978;29;20060;-58
2023/07/21 01:15:25;;;;;;;9.52;8.63;;;19.60;93.40;;;;;;4954472;29;20038;-58
2023/07/21 01:17:51;;;;;;;9.15;8.25;;;19.50;93.50;;;;;;4936634;29;20458;-59
2023/07/21 01:20:22;;;;;;;8.98;8.13;;;19.50;93.70;;;;;;4954429;29;20027;-57
2023/07/21 01:23:00;;;;;;;9.90;8.98;;;19.50;94.20;;;;;;4954482;29;20062;-58
2023/07/21 01:25:28;;;;;;;9.70;8.80;;;19.50;93.70;;;;;;4954147;29;20483;-58
2023/07/21 01:27:55;;;;;;;8.25;7.45;;;19.40;93.80;;;;;;4954456;29;20368;-58
2023/07/21 01:30:21;;;;;;;9.48;8.48;;;19.40;94.00;;;;;;4954065;29;20055;-58
2023/07/21 01:32:50;;;;;;;8.68;7.88;;;19.40;94.00;;;;;;4954313;29;20038;-58
2023/07/21 01:35:17;;;;;;;8.68;7.88;;;19.40;94.00;;;;;;4954013;29;20034;-58
2023/07/21 01:37:44;;;;;;;8.35;7.55;;;19.40;94.00;;;;;;4954177;29;20031;-57
2023/07/21 01:40:13;;;;;;;8.63;7.80;;;19.40;94.10;;;;;;4953859;29;20026;-57
2023/07/21 01:42:41;;;;;;;8.05;7.30;;;19.40;94.10;;;;;;4953798;29;20159;-57
2023/07/21 01:45:07;;;;;;;8.13;7.32;;;19.40;94.10;;;;;;4954277;29;20062;-57
2023/07/21 01:47:34;;;;;;;8.50;7.68;;;19.40;94.00;;;;;;4953830;29;20102;-58
2023/07/21 01:50:00;;;;;;;9.75;8.30;;;19.40;93.90;;;;;;4953730;29;20101;-58
2023/07/21 01:52:31;;;;;;;8.45;7.70;;;19.40;93.80;;;;;;4953867;29;20033;-58
2023/07/21 01:55:09;;;;;;;;;;;19.30;93.60;;;;;;4954212;29;20015;-58
2023/07/21 01:57:38;;;;;;;7.72;7.03;;;19.20;93.20;;;;;;4953731;29;19922;-58
2023/07/21 02:00:08;;;;;;;9.30;7.85;;;19.20;93.70;;;;;;4954030;29;20365;-59
2023/07/21 02:02:34;;;;;;;9.07;8.18;;;19.30;93.80;;;;;;4953870;29;20427;-58
2023/07/21 02:05:00;;;;;;;8.60;7.80;;;19.30;93.80;;;;;;4953892;29;20027;-58
2023/07/21 02:07:25;;;;;;;9.25;8.35;;;19.30;93.70;;;;;;4953732;29;20031;-58
2023/07/21 02:09:52;;;;;;;9.75;8.82;;;19.30;93.90;;;;;;4953521;29;20031;-58
2023/07/21 02:12:19;;;;;;;10.00;9.07;;;19.30;93.90;;;;;;4953609;29;20110;-58
2023/07/21 02:14:45;;;;;;;10.05;9.10;;;19.30;93.80;;;;;;4953445;29;20066;-58
2023/07/21 02:17:11;;;;;;;9.90;8.95;;;19.40;93.60;;;;;;4953400;29;20120;-57
2023/07/21 02:19:37;;;;;;;10.98;9.95;;;19.30;93.80;;;;;;4953556;29;20023;-58
2023/07/21 02:22:02;;;;;;;10.82;9.82;;;19.30;93.30;;;;;;4953296;29;20473;-59
2023/07/21 02:24:28;;;;;;;9.65;8.75;;;19.30;93.20;;;;;;4953516;29;20031;-58
2023/07/21 02:26:54;;;;;;;9.30;8.40;;;19.30;93.20;;;;;;4953210;29;20085;-58
2023/07/21 02:29:20;;;;;;;9.82;8.93;;;19.30;93.10;;;;;;4952730;28;20035;-58
2023/07/21 02:31:48;;;;;;;9.55;8.65;;;19.30;93.10;;;;;;4953189;29;20162;-58
2023/07/21 02:34:14;;;;;;;9.02;8.13;;;19.30;93.10;;;;;;4953253;29;20042;-57
2023/07/21 02:36:41;;;;;;;8.70;7.82;;;19.20;93.00;;;;;;4953336;29;20055;-58
2023/07/21 02:39:07;;;;;;;9.77;8.75;;;19.20;92.80;;;;;;4953313;29;20462;-58
2023/07/21 02:41:33;;;;;;;9.55;8.68;;;19.20;92.80;;;;;;4953131;29;20114;-59
2023/07/21 02:43:59;;;;;;;10.18;9.23;;;19.20;92.80;;;;;;4953385;29;20118;-58
2023/07/21 02:46:25;;;;;;;10.85;9.85;;;19.20;92.80;;;;;;4953442;29;20034;-58
2023/07/21 02:48:51;;;;;;;10.50;9.50;;;19.20;93.00;;;;;;4953120;29;20114;-58
2023/07/21 02:51:16;;;;;;;10.05;9.05;;;19.20;92.80;;;;;;4952918;29;20038;-56
2023/07/21 02:53:42;;;;;;;10.32;9.32;;;19.20;92.70;;;;;;4952944;29;20058;-58
2023/07/21 02:56:08;;;;;;;9.18;8.27;;;19.30;93.00;;;;;;4952882;29;20041;-58
2023/07/21 02:58:35;;;;;;;10.07;9.02;;;19.30;92.50;;;;;;4952779;29;20074;-56
2023/07/21 03:01:03;;;;;;;8.60;7.72;;;19.30;92.50;;;;;;4953159;29;20039;-58
2023/07/21 03:03:29;;;;;;;9.02;8.05;;;19.30;92.40;;;;;;4953054;29;20432;-58
2023/07/21 03:05:56;;;;;;;9.45;8.45;;;19.30;92.40;;;;;;4952757;29;20369;-57
2023/07/21 03:08:28;;;;;;;9.07;8.23;;;19.40;92.40;;;;;;4951318;29;20035;-57
2023/07/21 03:10:58;;;;;;;8.38;7.57;;;19.40;92.40;;;;;;4951603;29;20031;-58
2023/07/21 03:13:25;;;;;;;8.10;7.30;;;19.40;92.20;;;;;;4952331;29;20027;-58
2023/07/21 03:15:54;;;;;;;8.18;7.38;;;19.40;92.10;;;;;;4951396;29;20051;-57
2023/07/21 03:18:20;;;;;;;7.57;6.75;;;19.40;92.10;;;;;;4952820;29;20416;-58
2023/07/21 03:20:45;;;;;;;7.15;6.45;;;19.40;92.00;;;;;;4952802;29;20081;-58
2023/07/21 03:23:12;;;;;;;8.02;6.95;;;19.40;92.00;;;;;;4952626;29;20497;-57
2023/07/21 03:25:47;;;;;;;7.45;6.68;;;19.40;92.00;;;;;;4952721;29;20562;-58
2023/07/21 03:28:13;;;;;;;7.22;6.53;;;19.50;92.10;;;;;;4952436;29;20032;-58
2023/07/21 03:30:40;;;;;;;6.70;6.07;;;19.40;92.30;;;;;;4952685;29;20101;-58
2023/07/21 03:33:06;;;;;;;6.80;6.18;;;19.50;92.20;;;;;;4953013;29;20035;-58
2023/07/21 03:35:32;;;;;;;6.90;6.20;;;19.50;92.00;;;;;;4952535;29;20154;-56
2023/07/21 03:37:58;;;;;;;6.57;5.88;;;19.50;91.90;;;;;;4952889;29;20047;-59
2023/07/21 03:40:24;;;;;;;7.00;6.30;;;19.50;91.80;;;;;;4953511;28;20420;-57
2023/07/21 03:42:50;;;;;;;6.40;5.80;;;19.50;91.90;;;;;;4956295;29;20094;-57
2023/07/21 03:45:15;;;;;;;6.43;5.80;;;19.50;91.90;;;;;;4956072;29;20114;-58
2023/07/21 03:47:41;;;;;;;6.90;5.55;;;19.60;91.90;;;;;;4955934;29;20031;-57
2023/07/21 03:50:10;;;;;;;6.18;5.57;;;19.60;91.80;;;;;;4956201;29;20023;-57
2023/07/21 03:52:35;;;;;;;5.80;5.30;;;19.60;91.70;;;;;;4938568;29;20030;-58
2023/07/21 03:55:01;;;;;;;6.20;5.55;;;19.70;91.70;;;;;;4955946;29;20027;-57
2023/07/21 03:57:27;;;;;;;6.28;5.55;;;19.70;91.70;;;;;;4955608;29;20047;-58
2023/07/21 03:59:52;;;;;;;5.97;5.38;;;19.70;91.60;;;;;;4955615;29;20038;-56
2023/07/21 04:02:18;;;;;;;5.30;4.80;;;19.70;91.50;;;;;;4955806;29;20085;-57
2023/07/21 04:04:48;;;;;;;5.70;5.15;;;19.80;91.50;;;;;;4955654;29;20086;-57
2023/07/21 04:07:14;;;;;;;6.82;5.80;;;19.80;91.30;;;;;;4956030;29;20035;-57
2023/07/21 04:09:40;;;;;;;6.45;5.85;;;19.80;91.50;;;;;;4955716;29;20410;-58
2023/07/21 04:12:06;;;;;;;5.78;5.28;;;19.80;91.00;;;;;;4955726;29;20102;-57
2023/07/21 04:14:32;;;;;;;5.38;4.88;;;19.80;91.00;;;;;;4955501;29;20035;-57
2023/07/21 04:16:58;;;;;;;5.15;4.65;;;19.70;91.00;;;;;;4955492;29;20031;-57
2023/07/21 04:19:25;;;;;;;5.20;4.70;;;19.80;91.00;;;;;;4955298;29;20035;-58
2023/07/21 04:21:52;;;;;;;5.50;4.93;;;19.80;90.90;;;;;;4955498;29;20531;-57
2023/07/21 04:24:18;;;;;;;5.45;4.95;;;19.80;90.90;;;;;;4954873;29;20038;-57
2023/07/21 04:26:44;;;;;;;5.82;5.22;;;19.80;90.90;;;;;;4955237;29;20459;-57
2023/07/21 04:29:09;;;;;;;5.53;4.60;;;19.80;90.80;;;;;;4955315;29;20064;-57
2023/07/21 04:31:35;;;;;;;5.88;4.95;;;19.80;90.60;;;;;;4954942;29;20114;-58
2023/07/21 04:34:01;;;;;;;6.40;5.03;;;19.80;90.40;;;;;;4955037;29;20106;-58
2023/07/21 04:36:27;;;;;;;5.40;4.90;;;19.80;90.50;;;;;;4955020;29;20105;-57
2023/07/21 04:38:53;;;;;;;5.20;4.70;;;19.80;90.40;;;;;;4955079;29;20396;-58
2023/07/21 04:41:19;;;;;;;5.40;4.90;;;19.90;90.30;;;;;;4954857;29;20027;-58
2023/07/21 04:43:44;;;;;;;5.53;4.68;;;19.90;90.30;;;;;;4955087;29;20369;-57
2023/07/21 04:46:10;;;;;;;5.13;4.63;;;19.80;90.40;;;;;;4955088;29;20024;-59
2023/07/21 04:48:36;;;;;;;5.28;4.78;;;19.90;90.40;;;;;;4953576;29;20042;-58
2023/07/21 04:51:03;;;;;;;5.60;5.10;;;19.90;90.30;;;;;;4953464;29;20059;-57
2023/07/21 04:53:30;;;;;;;5.60;5.00;;;19.90;90.20;;;;;;4953662;28;20038;-59
2023/07/21 04:55:57;;;;;;;5.65;5.15;;;19.90;90.10;;;;;;4954719;29;20082;-59
2023/07/21 04:58:23;;;;;;;5.45;4.60;;;19.90;90.00;;;;;;4953326;29;20414;-60
2023/07/21 05:00:49;;;;;;;5.65;5.15;;;19.90;90.00;;;;;;4952922;29;20059;-60
2023/07/21 05:03:15;;;;;;;5.40;4.90;;;19.90;90.00;;;;;;4953481;29;20027;-60
2023/07/21 05:05:40;;;;;;;5.35;4.85;;;19.90;90.00;;;;;;4953085;29;20027;-60
2023/07/21 05:08:06;;;;;;;5.30;4.80;;;19.90;90.00;;;;;;4953052;29;20558;-59
2023/07/21 05:10:32;;;;;;;5.50;5.00;;;20.00;90.00;;;;;;4954356;29;20050;-59
2023/07/21 05:12:59;;;;;;;5.22;4.72;;;20.00;90.00;;;;;;4954158;29;20038;-60
2023/07/21 05:15:25;;;;;;;5.20;4.70;;;20.00;90.00;;;;;;4953121;29;20439;-60
2023/07/21 05:17:51;;;;;;;5.07;4.57;;;20.10;89.90;;;;;;4953233;29;20034;-59
2023/07/21 05:20:19;;;;;;;5.55;4.68;;;20.10;89.80;;;;;;4953611;29;20164;-58
2023/07/21 05:22:46;;;;;;;5.45;4.95;;;20.10;89.50;;;;;;4953667;29;20034;-60
2023/07/21 05:25:16;;;;;;;5.18;4.65;;;20.20;89.20;;;;;;4953524;29;20110;-60
2023/07/21 05:27:42;;;;;;;5.25;4.70;;;20.20;88.80;;;;;;4953588;29;20034;-59
2023/07/21 05:30:11;;;;;;;5.10;4.60;;;20.30;88.80;;;;;;4954323;29;20424;-59
2023/07/21 05:32:39;;;;;;;5.10;4.60;;;20.30;88.50;;;;;;4954248;29;20019;-59
2023/07/21 05:35:09;;;;;;;4.93;4.43;;;20.30;88.10;;;;;;4959166;28;20027;-58
2023/07/21 05:37:35;;;;;;;5.80;5.22;;;20.40;88.10;;;;;;4968430;28;20030;-58
2023/07/21 05:40:00;;;;;;;5.25;4.70;;;20.40;87.70;;;;;;4963801;28;20386;-58
2023/07/21 05:42:26;;;;;;;5.25;4.60;;;20.40;87.80;;;;;;4967906;28;20483;-59
2023/07/21 05:44:52;;;;;;;5.43;4.93;;;20.40;86.90;;;;;;4966242;28;20023;-59
2023/07/21 05:47:19;;;;;;;6.13;5.30;;;20.40;86.40;;;;;;4967951;28;20076;-58
2023/07/21 05:49:44;;;;;;;6.32;4.60;;;20.40;86.30;;;;;;4972144;28;20035;-58
2023/07/21 05:52:10;;;;;;;4.95;4.45;;;20.40;85.90;;;;;;4972548;28;20130;-58
2023/07/21 05:54:37;;;;;;;5.15;4.65;;;20.40;85.40;;;;;;4964531;28;20113;-58
2023/07/21 05:57:03;;;;;;;5.05;4.45;;;20.40;85.30;;;;;;4968981;28;20093;-58
2023/07/21 05:59:32;;;;;;;5.30;4.80;;;20.40;84.80;;;;;;4967158;28;20031;-58
2023/07/21 06:02:00;;;;;;;6.20;4.80;;;20.50;84.40;;;;;;4967876;28;20027;-59
2023/07/21 06:04:26;;;;;;;5.30;4.80;;;20.50;84.10;;;;;;4972165;28;20027;-58
2023/07/21 06:06:54;;;;;;;5.25;4.75;;;20.50;83.90;;;;;;4972373;28;20027;-58
2023/07/21 06:09:19;;;;;;;4.82;4.38;;;20.60;84.10;;;;;;4971331;28;20027;-58
2023/07/21 06:11:45;;;;;;;5.18;4.68;;;20.70;84.60;;;;;;4966405;28;20030;-59
2023/07/21 06:14:11;;;;;;;5.63;5.13;;;20.90;84.40;;;;;;4960532;28;20121;-58
2023/07/21 06:16:36;;;;;;;5.53;4.95;;;21.10;83.90;;;;;;4965687;28;20105;-59
2023/07/21 06:19:02;;;;;;;5.18;4.72;;;21.20;83.30;;;;;;4966007;28;20042;-57
2023/07/21 06:21:28;;;;;;;5.15;4.65;;;21.30;82.70;;;;;;4967714;28;20030;-57
2023/07/21 06:23:53;;;;;;;4.57;4.18;;;21.40;82.40;;;;;;4974607;28;20046;-58
2023/07/21 06:26:19;;;;;;;4.68;4.28;;;21.40;81.50;;;;;;4963793;28;20130;-57
2023/07/21 06:28:45;;;;;;;4.38;3.97;;;21.50;81.20;;;;;;4974559;28;20603;-58
2023/07/21 06:31:12;;;;;;;5.28;4.78;;;21.40;80.70;;;;;;4963311;28;20119;-55
2023/07/21 06:33:38;;;;;;;5.05;4.63;;;21.40;80.70;;;;;;4965408;28;20030;-57
2023/07/21 06:36:04;;;;;;;4.45;4.05;;;21.50;80.50;;;;;;4970432;28;20483;-57
2023/07/21 06:38:30;;;;;;;5.00;4.53;;;21.50;80.60;;;;;;4967192;28;20058;-58
2023/07/21 06:40:55;;;;;;;5.13;4.63;;;21.60;80.30;;;;;;4971737;28;20081;-57
2023/07/21 06:43:21;;;;;;;4.93;4.43;;;21.70;80.20;;;;;;4959352;28;20450;-60
2023/07/21 06:45:47;;;;;;;4.78;4.20;;;21.80;80.00;;;;;;4965835;28;20027;-60
2023/07/21 06:48:12;;;;;;;5.05;4.55;;;21.90;79.60;;;;;;4962563;28;20034;-60
2023/07/21 06:50:38;;;;;;;5.25;4.75;;;22.00;79.00;;;;;;4970471;28;20034;-59
2023/07/21 06:53:05;;;;;;;4.50;4.10;;;22.10;79.00;;;;;;4968855;28;20026;-60
2023/07/21 06:55:32;;;;;;;4.82;4.43;;;22.10;78.50;;;;;;4968213;28;20102;-60
2023/07/21 06:57:57;;;;;;;4.78;4.38;;;22.10;78.00;;;;;;4954067;28;20047;-58
2023/07/21 07:00:23;;;;;;;4.75;4.25;;;22.10;77.50;;;;;;4964771;28;20395;-59
2023/07/21 07:02:49;;;;;;;4.25;3.85;;;22.10;77.40;;;;;;4962327;28;20041;-57
2023/07/21 07:05:16;;;;;;;4.75;4.35;;;22.10;77.80;;;;;;4964094;28;20023;-58
2023/07/21 07:07:42;;;;;;;6.35;5.75;;;22.10;77.90;;;;;;4962607;28;20037;-57
2023/07/21 07:10:08;;;;;;;5.50;4.80;;;22.20;77.80;;;;;;4965380;28;20038;-57
2023/07/21 07:12:34;;;;;;;4.60;4.20;;;22.20;77.30;;;;;;4960302;28;20027;-55
2023/07/21 07:15:00;;;;;;;4.50;4.10;;;22.30;77.30;;;;;;4967723;28;20455;-57
2023/07/21 07:17:25;;;;;;;3.80;3.50;;;22.30;77.20;;;;;;4965236;28;20029;-57
2023/07/21 07:19:51;;;;;;;3.95;3.50;;;22.30;76.90;;;;;;4960700;28;21271;-57
2023/07/21 07:22:17;;;;;;;4.07;3.67;;;22.40;76.70;;;;;;4963896;28;20442;-58
2023/07/21 07:24:43;;;;;;;4.63;4.22;;;22.40;76.50;;;;;;4958217;28;20031;-59
2023/07/21 07:27:09;;;;;;;4.00;3.70;;;22.40;76.60;;;;;;4967149;28;20109;-57
2023/07/21 07:29:35;;;;;;;3.75;3.45;;;22.40;76.90;;;;;;4943523;28;20060;-58
2023/07/21 07:32:01;;;;;;;4.30;3.90;;;22.50;76.70;;;;;;4963141;28;20030;-58
2023/07/21 07:34:27;;;;;;;4.40;4.00;;;22.50;76.50;;;;;;4969163;28;20105;-58
2023/07/21 07:36:53;;;;;;;4.25;3.78;;;22.50;76.50;;;;;;4962114;28;20749;-58
2023/07/21 07:39:19;;;;;;;4.70;4.13;;;22.50;76.30;;;;;;4964405;28;20460;-58
2023/07/21 07:41:45;;;;;;;4.10;3.70;;;22.50;76.90;;;;;;4964689;28;20027;-57
2023/07/21 07:44:11;;;;;;;4.10;3.53;;;22.50;76.40;;;;;;4966226;28;20026;-58
2023/07/21 07:46:37;;;;;;;4.35;3.92;;;22.60;76.50;;;;;;4964405;28;20053;-61
2023/07/21 07:49:03;;;;;;;3.97;3.55;;;22.70;76.70;;;;;;4969399;28;20550;-58
2023/07/21 07:51:29;;;;;;;3.88;3.50;;;22.70;76.30;;;;;;4967454;28;20119;-59
2023/07/21 07:53:55;;;;;;;4.13;3.72;;;22.80;76.10;;;;;;4962734;28;20046;-57
2023/07/21 07:56:21;;;;;;;3.78;3.38;;;22.80;75.90;;;;;;4964849;28;20035;-60
2023/07/21 07:58:47;;;;;;;3.90;3.50;;;22.80;75.60;;;;;;4956251;28;20737;-59
2023/07/21 08:01:13;;;;;;;3.60;3.30;;;22.80;75.60;;;;;;4957655;28;20031;-58
2023/07/21 08:03:43;;;;;;;4.13;3.72;;;22.80;75.50;;;;;;4967480;28;20038;-58
2023/07/21 08:06:13;;;;;;;4.20;3.40;;;22.90;75.30;;;;;;4960894;28;21731;-57
2023/07/21 08:08:40;;;;;;;3.50;3.20;;;22.90;75.10;;;;;;4961123;28;20043;-56
2023/07/21 08:11:06;;;;;;;3.67;3.38;;;22.90;74.50;;;;;;4962172;28;20031;-58
2023/07/21 08:13:32;;;;;;;3.88;3.50;;;22.80;74.60;;;;;;4953444;28;20067;-56
2023/07/21 08:15:57;;;;;;;4.25;3.85;;;22.90;74.50;;;;;;4954653;28;20542;-56
2023/07/21 08:18:23;;;;;;;4.05;3.67;;;22.90;74.40;;;;;;4951231;28;20138;-57
2023/07/21 08:20:51;;;;;;;4.40;4.00;;;22.90;74.40;;;;;;4951399;28;20051;-56
2023/07/21 08:23:16;;;;;;;4.28;3.85;;;22.90;74.30;;;;;;4950840;29;20412;-57
2023/07/21 08:25:42;;;;;;;3.55;3.25;;;22.90;74.10;;;;;;4949890;28;20050;-56
2023/07/21 08:28:08;;;;;;;3.70;3.38;;;23.00;74.20;;;;;;4956967;28;20038;-57
2023/07/21 08:30:35;;;;;;;4.20;3.80;;;23.00;74.00;;;;;;4962896;28;20032;-57
2023/07/21 08:33:02;;;;;;;4.18;3.78;;;23.00;73.70;;;;;;4958487;28;20319;-57
2023/07/21 08:35:28;;;;;;;4.65;3.95;;;23.00;73.60;;;;;;4957702;28;20054;-56
2023/07/21 08:37:55;;;;;;;4.28;3.83;;;23.00;73.30;;;;;;4955804;28;20491;-57
2023/07/21 08:40:22;;;;;;;4.35;3.95;;;23.00;73.10;;;;;;4959881;28;20047;-57
2023/07/21 08:42:50;;;;;;;4.38;3.65;;;23.00;73.10;;;;;;4958591;28;20039;-55
2023/07/21 08:45:16;;;;;;;3.95;3.55;;;23.00;73.10;;;;;;4953468;28;20034;-57
2023/07/21 08:47:41;;;;;;;3.67;3.38;;;23.00;72.70;;;;;;4953798;28;20179;-57
2023/07/21 08:50:07;;;;;;;3.75;3.45;;;23.00;72.60;;;;;;4952245;28;20034;-55
2023/07/21 08:52:34;;;;;;;3.47;3.17;;;23.00;72.80;;;;;;4958010;28;20041;-58
2023/07/21 08:55:02;;;;;;;3.53;3.22;;;23.00;72.50;;;;;;4954321;28;20097;-56
2023/07/21 08:57:28;;;;;;;3.42;3.13;;;23.00;72.20;;;;;;4952069;28;20051;-57
2023/07/21 08:59:55;;;;;;;3.50;3.20;;;23.00;72.10;;;;;;4959107;28;20699;-58
2023/07/21 09:02:47;;;;;;;3.35;3.10;;;23.00;71.90;;;;;;4958151;28;20447;-58
2023/07/21 09:05:17;;;;;;;3.20;2.90;;;23.00;71.90;;;;;;4953379;28;20055;-58
2023/07/21 09:07:44;;;;;;;3.47;2.83;;;22.90;71.60;;;;;;4957496;28;20030;-56
2023/07/21 09:10:10;;;;;;;3.17;2.90;;;22.90;71.70;;;;;;4959257;28;20039;-56
2023/07/21 09:12:37;;;;;;;3.17;2.88;;;22.90;71.70;;;;;;4959739;28;20047;-56
2023/07/21 09:15:10;;;;;;;3.22;2.80;;;22.90;71.40;;;;;;4955502;28;20027;-56
2023/07/21 09:17:42;;;;;;;4.05;3.63;;;22.90;71.20;;;;;;4952100;28;20026;-56
2023/07/21 09:20:10;;;;;;;4.57;3.85;;;22.80;71.10;;;;;;4962756;28;20141;-58
2023/07/21 09:22:36;;;;;;;3.65;3.35;;;22.90;71.20;;;;;;4961642;28;20022;-59
2023/07/21 09:25:02;;;;;;;3.50;3.20;;;22.80;71.30;;;;;;4955544;28;20624;-55
2023/07/21 09:27:27;;;;;;;3.35;2.97;;;22.80;71.30;;;;;;4959004;28;20062;-56
2023/07/21 09:30:00;;;;;;;3.47;3.17;;;22.80;71.20;;;;;;4960271;28;20034;-55
2023/07/21 09:32:27;;;;;;;3.35;2.97;;;22.80;71.40;;;;;;4953451;28;20035;-57
2023/07/21 09:35:00;;;;;;;3.85;3.30;;;22.80;71.40;;;;;;4960950;28;20368;-59
2023/07/21 09:37:30;;;;;;;3.58;3.28;;;22.80;71.40;;;;;;4955364;28;20031;-56
2023/07/21 09:39:58;;;;;;;3.75;3.45;;;22.80;71.30;;;;;;4960353;28;20037;-55
2023/07/21 09:42:25;;;;;;;3.75;3.45;;;22.80;71.20;;;;;;4959244;28;20114;-58
2023/07/21 09:44:52;;;;;;;3.65;3.35;;;22.80;71.40;;;;;;4963489;28;20038;-58
2023/07/21 09:47:18;;;;;;;3.00;2.80;;;22.70;71.50;;;;;;4956803;28;20317;-57
2023/07/21 09:49:44;;;;;;;3.25;3.03;;;22.80;71.60;;;;;;4956536;28;20031;-57
2023/07/21 09:52:15;;;;;;;3.67;3.33;;;22.70;71.30;;;;;;4959533;28;20041;-57
2023/07/21 09:54:42;;;;;;;;;;;22.80;71.30;;;;;;4960167;28;21524;-57
2023/07/21 09:57:11;;;;;;;2.95;2.72;;;22.70;71.40;;;;;;4952748;28;19941;-57
2023/07/21 09:59:39;;;;;;;3.10;2.80;;;22.70;71.50;;;;;;4956256;28;20069;-57
2023/07/21 10:02:07;;;;;;;3.20;2.90;;;22.80;72.00;;;;;;4958460;28;20220;-57
2023/07/21 10:04:34;;;;;;;3.63;2.92;;;22.80;71.20;;;;;;4951787;28;20019;-58
2023/07/21 10:07:03;;;;;;;3.20;2.90;;;22.70;71.00;;;;;;4957652;28;20031;-57
2023/07/21 10:09:31;;;;;;;3.20;2.90;;;22.80;71.00;;;;;;4955559;28;20065;-57
2023/07/21 10:12:41;;;;;;;3.20;2.90;;;22.80;71.20;;;;;;4964308;28;20035;-57
2023/07/21 10:15:36;;;;;;;3.10;2.80;;;22.80;71.10;;;;;;4948538;28;20047;-57
2023/07/21 10:18:12;;;;;;;3.17;2.88;;;22.80;71.40;;;;;;4949345;28;20047;-55
2023/07/21 10:20:50;;;;;;;3.53;3.22;;;22.80;71.50;;;;;;4950689;28;20026;-57
2023/07/21 10:23:23;;;;;;;2.90;2.65;;;22.80;71.40;;;;;;4961183;28;20521;-59
2023/07/21 10:25:51;;;;;;;3.03;2.78;;;22.90;71.40;;;;;;4961808;28;20091;-59
2023/07/21 10:28:37;;;;;;;3.38;2.83;;;22.90;71.00;;;;;;4967778;28;20034;-58
2023/07/21 10:31:26;;;;;;;2.80;2.60;;;22.90;70.90;;;;;;4973648;28;20046;-58
2023/07/21 10:34:07;;;;;;;3.45;3.13;;;22.90;70.60;;;;;;4960836;28;20039;-58
2023/07/21 10:36:38;;;;;;;;;;;23.00;70.50;;;;;;4963914;28;20035;-59
2023/07/21 10:39:10;;;;;;;3.40;3.10;;;22.90;70.70;;;;;;4956273;28;19922;-57
2023/07/21 10:41:37;;;;;;;3.45;3.15;;;22.90;70.70;;;;;;4961144;28;20039;-60
2023/07/21 10:44:06;;;;;;;3.30;3.00;;;22.90;70.60;;;;;;4963616;28;20085;-57
2023/07/21 10:46:36;;;;;;;3.63;3.30;;;22.90;70.10;;;;;;4957320;28;20042;-61
2023/07/21 10:49:01;;;;;;;3.63;3.33;;;23.00;70.00;;;;;;4958615;28;20031;-58
2023/07/21 10:51:28;;;;;;;3.58;3.28;;;22.90;69.80;;;;;;4956713;28;20542;-56
2023/07/21 10:53:54;;;;;;;3.40;3.10;;;23.00;69.40;;;;;;4957622;28;20034;-57
2023/07/21 10:56:21;;;;;;;3.45;3.05;;;23.00;69.10;;;;;;4960000;28;20489;-58
2023/07/21 10:58:48;;;;;;;3.40;3.10;;;23.00;68.70;;;;;;4960837;28;20174;-58
2023/07/21 11:01:20;;;;;;;3.22;3.03;;;23.00;68.00;;;;;;4958072;28;20027;-58
2023/07/21 11:03:46;;;;;;;3.95;3.63;;;23.00;67.70;;;;;;4961569;28;20031;-58
2023/07/21 11:06:12;;;;;;;3.40;3.10;;;23.00;67.50;;;;;;4960957;28;20103;-58
2023/07/21 11:08:38;;;;;;;3.58;3.28;;;23.00;67.70;;;;;;4960218;28;20380;-58
2023/07/21 11:11:04;;;;;;;3.80;3.50;;;23.00;67.80;;;;;;4959863;28;20027;-59
2023/07/21 11:13:30;;;;;;;3.70;3.40;;;23.00;67.60;;;;;;4959240;28;20042;-57
2023/07/21 11:15:56;;;;;;;4.18;3.88;;;23.00;67.20;;;;;;4961447;28;20031;-58
2023/07/21 11:18:22;;;;;;;3.70;3.40;;;23.00;67.10;;;;;;4959887;28;20039;-58
2023/07/21 11:20:52;;;;;;;3.85;3.55;;;23.00;67.20;;;;;;4956909;28;20043;-60
2023/07/21 11:23:21;;;;;;;3.90;3.60;;;23.10;67.30;;;;;;4967399;28;20039;-58
2023/07/21 11:26:09;;;;;;;3.95;3.65;;;23.10;67.10;;;;;;4963314;28;20023;-57
2023/07/21 11:28:37;;;;;;;3.72;3.42;;;23.10;66.70;;;;;;4964832;28;20073;-57
2023/07/21 11:31:09;;;;;;;3.90;3.60;;;23.10;66.60;;;;;;4959361;28;20027;-56
2023/07/21 11:34:01;;;;;;;3.70;3.40;;;23.10;66.60;;;;;;4958175;28;20035;-58
2023/07/21 11:36:30;;;;;;;4.10;3.70;;;23.10;66.40;;;;;;4953103;28;20049;-57
2023/07/21 11:39:00;;;;;;;4.63;3.30;;;23.10;66.70;;;;;;4955792;28;20141;-58
2023/07/21 11:41:51;;;;;;;4.50;4.10;;;23.10;67.00;;;;;;4957538;28;20037;-55
2023/07/21 11:44:18;;;;;;;3.95;3.65;;;23.10;67.10;;;;;;4963161;28;20027;-57
2023/07/21 11:47:09;;;;;;;4.15;3.85;;;23.10;67.20;;;;;;4960893;28;20118;-55
2023/07/21 11:49:43;;;;;;;4.13;3.72;;;23.10;67.50;;;;;;4958291;28;20038;-58
2023/07/21 11:52:10;;;;;;;3.80;3.50;;;23.10;67.50;;;;;;4961122;28;20030;-55
2023/07/21 11:54:41;;;;;;;4.07;3.78;;;23.10;67.70;;;;;;4960217;28;20031;-57
2023/07/21 11:57:08;;;;;;;3.72;3.42;;;23.10;67.50;;;;;;4953967;28;20093;-56
2023/07/21 11:59:33;;;;;;;3.42;3.20;;;23.10;67.40;;;;;;4956338;28;20491;-55
2023/07/21 12:02:02;;;;;;;3.50;3.20;;;23.10;67.50;;;;;;4942312;28;20090;-56
2023/07/21 12:04:28;;;;;;;3.75;3.10;;;23.10;67.30;;;;;;4958669;28;20093;-59
2023/07/21 12:06:53;;;;;;;3.05;2.75;;;23.10;67.10;;;;;;4962980;28;20035;-60
2023/07/21 12:09:19;;;;;;;3.00;2.80;;;23.10;66.90;;;;;;4957669;28;20115;-58
2023/07/21 12:11:46;;;;;;;2.83;2.60;;;23.10;66.90;;;;;;4950771;28;20447;-57
2023/07/21 12:14:11;;;;;;;2.90;2.70;;;23.10;66.70;;;;;;4956216;28;20417;-58
2023/07/21 12:16:37;;;;;;;3.08;2.88;;;23.10;66.80;;;;;;4955541;28;20236;-57
2023/07/21 12:19:04;;;;;;;3.08;2.85;;;23.10;66.80;;;;;;4957288;28;20039;-57
2023/07/21 12:21:30;;;;;;;2.83;2.63;;;23.10;66.40;;;;;;4958635;28;20026;-58
2023/07/21 12:23:56;;;;;;;2.78;2.58;;;23.10;67.00;;;;;;4956441;28;20022;-58
2023/07/21 12:26:23;;;;;;;2.65;2.45;;;23.10;66.20;;;;;;4957386;28;20034;-57
2023/07/21 12:28:50;;;;;;;2.90;2.63;;;23.10;65.90;;;;;;4958330;28;20633;-57
2023/07/21 12:31:17;;;;;;;2.83;2.63;;;23.10;65.90;;;;;;4956999;28;20049;-58
2023/07/21 12:33:44;;;;;;;3.42;3.13;;;23.10;65.90;;;;;;4958337;28;20029;-57
2023/07/21 12:36:14;;;;;;;3.03;2.83;;;23.20;66.00;;;;;;4953743;28;20027;-58
2023/07/21 12:38:41;;;;;;;3.40;3.10;;;23.20;65.50;;;;;;4953768;28;20530;-57
2023/07/21 12:41:06;;;;;;;3.05;2.85;;;23.20;65.40;;;;;;4959060;28;20411;-55
2023/07/21 12:43:32;;;;;;;3.00;2.80;;;23.20;65.40;;;;;;4953272;28;20023;-57
2023/07/21 12:45:58;;;;;;;3.10;2.90;;;23.20;65.10;;;;;;4957050;28;20207;-57
2023/07/21 12:48:24;;;;;;;3.10;2.90;;;23.20;65.20;;;;;;4961273;28;20034;-55
2023/07/21 12:50:49;;;;;;;3.58;3.28;;;23.20;65.40;;;;;;4961228;28;20498;-56